sensor_id;sensor_type;location;lat;lon;timestamp;P1;durP1;ratioP1;P2;durP2;ratioP2
27223;SDS011;14965;50.660;13.226;2023-05-27T00:01:49;17.85;;;5.47;;
27223;SDS011;14965;50.660;13.226;2023-05-27T00:04:15;15.27;;;5.40;;
27223;SDS011;14965;50.660;13.226;2023-05-27T00:06:42;17.60;;;5.55;;
27223;SDS011;14965;50.660;13.226;2023-05-27T00:09:08;20.83;;;5.20;;
27223;SDS011;14965;50.660;13.226;2023-05-27T00:11:36;20.17;;;5.97;;
27223;SDS011;14965;50.660;13.226;2023-05-27T00:14:03;24.58;;;5.97;;
27223;SDS011;14965;50.660;13.226;2023-05-27T00:16:29;19.52;;;5.82;;
27223;SDS011;14965;50.660;13.226;2023-05-27T00:18:55;19.92;;;5.60;;
27223;SDS011;14965;50.660;13.226;2023-05-27T00:21:21;22.60;;;5.90;;
27223;SDS011;14965;50.660;13.226;2023-05-27T00:23:50;21.38;;;6.05;;
27223;SDS011;14965;50.660;13.226;2023-05-27T00:26:18;20.40;;;6.07;;
27223;SDS011;14965;50.660;13.226;2023-05-27T00:28:46;20.25;;;5.88;;
27223;SDS011;14965;50.660;13.226;2023-05-27T00:31:12;14.25;;;5.47;;
27223;SDS011;14965;50.660;13.226;2023-05-27T00:36:08;17.55;;;6.10;;
27223;SDS011;14965;50.660;13.226;2023-05-27T00:38:34;20.40;;;5.90;;
27223;SDS011;14965;50.660;13.226;2023-05-27T00:41:01;19.42;;;5.40;;
27223;SDS011;14965;50.660;13.226;2023-05-27T00:43:29;22.23;;;6.00;;
27223;SDS011;14965;50.660;13.226;2023-05-27T00:45:57;21.77;;;6.07;;
27223;SDS011;14965;50.660;13.226;2023-05-27T00:48:24;20.10;;;6.03;;
27223;SDS011;14965;50.660;13.226;2023-05-27T00:50:52;25.42;;;5.80;;
27223;SDS011;14965;50.660;13.226;2023-05-27T00:53:19;20.38;;;5.43;;
27223;SDS011;14965;50.660;13.226;2023-05-27T00:55:45;23.23;;;5.80;;
27223;SDS011;14965;50.660;13.226;2023-05-27T00:58:13;19.40;;;5.68;;
27223;SDS011;14965;50.660;13.226;2023-05-27T01:00:39;15.13;;;5.47;;
27223;SDS011;14965;50.660;13.226;2023-05-27T01:03:08;16.33;;;5.75;;
27223;SDS011;14965;50.660;13.226;2023-05-27T01:05:37;18.48;;;5.63;;
27223;SDS011;14965;50.660;13.226;2023-05-27T01:08:08;21.33;;;5.53;;
27223;SDS011;14965;50.660;13.226;2023-05-27T01:10:45;16.63;;;6.43;;
27223;SDS011;14965;50.660;13.226;2023-05-27T01:13:16;15.75;;;6.50;;
27223;SDS011;14965;50.660;13.226;2023-05-27T01:15:53;19.08;;;6.35;;
27223;SDS011;14965;50.660;13.226;2023-05-27T01:18:27;17.98;;;6.38;;
27223;SDS011;14965;50.660;13.226;2023-05-27T01:20:57;22.15;;;6.18;;
27223;SDS011;14965;50.660;13.226;2023-05-27T01:23:33;21.77;;;5.90;;
27223;SDS011;14965;50.660;13.226;2023-05-27T01:25:59;20.88;;;6.28;;
27223;SDS011;14965;50.660;13.226;2023-05-27T01:28:27;15.50;;;5.13;;
27223;SDS011;14965;50.660;13.226;2023-05-27T01:30:54;19.33;;;6.20;;
27223;SDS011;14965;50.660;13.226;2023-05-27T01:33:31;21.63;;;6.05;;
27223;SDS011;14965;50.660;13.226;2023-05-27T01:36:04;18.95;;;5.82;;
27223;SDS011;14965;50.660;13.226;2023-05-27T01:38:40;21.88;;;6.20;;
27223;SDS011;14965;50.660;13.226;2023-05-27T01:41:11;19.05;;;5.43;;
27223;SDS011;14965;50.660;13.226;2023-05-27T01:43:39;18.47;;;5.70;;
27223;SDS011;14965;50.660;13.226;2023-05-27T01:46:06;16.63;;;5.63;;
27223;SDS011;14965;50.660;13.226;2023-05-27T01:48:32;16.98;;;5.43;;
27223;SDS011;14965;50.660;13.226;2023-05-27T01:50:58;20.55;;;5.70;;
27223;SDS011;14965;50.660;13.226;2023-05-27T01:53:23;15.98;;;5.25;;
27223;SDS011;14965;50.660;13.226;2023-05-27T01:55:51;15.82;;;5.35;;
27223;SDS011;14965;50.660;13.226;2023-05-27T01:58:17;21.05;;;6.03;;
27223;SDS011;14965;50.660;13.226;2023-05-27T02:00:42;21.52;;;5.72;;
27223;SDS011;14965;50.660;13.226;2023-05-27T02:03:08;21.52;;;6.03;;
27223;SDS011;14965;50.660;13.226;2023-05-27T02:05:34;16.60;;;5.70;;
27223;SDS011;14965;50.660;13.226;2023-05-27T02:08:00;17.60;;;5.68;;
27223;SDS011;14965;50.660;13.226;2023-05-27T02:10:26;16.88;;;5.43;;
27223;SDS011;14965;50.660;13.226;2023-05-27T02:12:53;18.52;;;5.57;;
27223;SDS011;14965;50.660;13.226;2023-05-27T02:15:19;22.13;;;5.78;;
27223;SDS011;14965;50.660;13.226;2023-05-27T02:17:45;16.30;;;5.43;;
27223;SDS011;14965;50.660;13.226;2023-05-27T02:20:11;14.82;;;5.43;;
27223;SDS011;14965;50.660;13.226;2023-05-27T02:22:38;18.92;;;6.00;;
27223;SDS011;14965;50.660;13.226;2023-05-27T02:25:04;17.33;;;5.78;;
27223;SDS011;14965;50.660;13.226;2023-05-27T02:27:31;19.60;;;6.07;;
27223;SDS011;14965;50.660;13.226;2023-05-27T02:29:58;16.20;;;5.45;;
27223;SDS011;14965;50.660;13.226;2023-05-27T02:32:24;17.38;;;6.20;;
27223;SDS011;14965;50.660;13.226;2023-05-27T02:34:49;19.30;;;5.63;;
27223;SDS011;14965;50.660;13.226;2023-05-27T02:37:15;18.55;;;5.88;;
27223;SDS011;14965;50.660;13.226;2023-05-27T02:39:41;26.55;;;6.20;;
27223;SDS011;14965;50.660;13.226;2023-05-27T02:42:07;21.85;;;6.63;;
27223;SDS011;14965;50.660;13.226;2023-05-27T02:44:33;26.92;;;6.43;;
27223;SDS011;14965;50.660;13.226;2023-05-27T02:47:00;16.38;;;5.00;;
27223;SDS011;14965;50.660;13.226;2023-05-27T02:49:26;21.73;;;5.45;;
27223;SDS011;14965;50.660;13.226;2023-05-27T02:51:52;15.02;;;5.05;;
27223;SDS011;14965;50.660;13.226;2023-05-27T02:54:18;17.42;;;5.55;;
27223;SDS011;14965;50.660;13.226;2023-05-27T02:56:43;15.60;;;5.28;;
27223;SDS011;14965;50.660;13.226;2023-05-27T02:59:09;20.55;;;5.65;;
27223;SDS011;14965;50.660;13.226;2023-05-27T03:01:35;18.00;;;5.93;;
27223;SDS011;14965;50.660;13.226;2023-05-27T03:04:03;15.52;;;5.20;;
27223;SDS011;14965;50.660;13.226;2023-05-27T03:06:29;14.88;;;5.65;;
27223;SDS011;14965;50.660;13.226;2023-05-27T03:08:54;18.85;;;5.93;;
27223;SDS011;14965;50.660;13.226;2023-05-27T03:11:20;15.52;;;5.53;;
27223;SDS011;14965;50.660;13.226;2023-05-27T03:13:46;18.35;;;5.65;;
27223;SDS011;14965;50.660;13.226;2023-05-27T03:16:13;20.05;;;5.38;;
27223;SDS011;14965;50.660;13.226;2023-05-27T03:18:39;20.30;;;5.85;;
27223;SDS011;14965;50.660;13.226;2023-05-27T03:21:06;15.13;;;5.22;;
27223;SDS011;14965;50.660;13.226;2023-05-27T03:23:33;22.50;;;5.85;;
27223;SDS011;14965;50.660;13.226;2023-05-27T03:25:59;22.75;;;5.82;;
27223;SDS011;14965;50.660;13.226;2023-05-27T03:28:25;17.50;;;5.93;;
27223;SDS011;14965;50.660;13.226;2023-05-27T03:30:51;13.50;;;5.05;;
27223;SDS011;14965;50.660;13.226;2023-05-27T03:33:17;19.42;;;6.18;;
27223;SDS011;14965;50.660;13.226;2023-05-27T03:35:43;12.10;;;5.10;;
27223;SDS011;14965;50.660;13.226;2023-05-27T03:38:11;16.38;;;5.80;;
27223;SDS011;14965;50.660;13.226;2023-05-27T03:40:37;18.65;;;5.63;;
27223;SDS011;14965;50.660;13.226;2023-05-27T03:43:03;19.80;;;5.50;;
27223;SDS011;14965;50.660;13.226;2023-05-27T03:45:29;21.08;;;5.97;;
27223;SDS011;14965;50.660;13.226;2023-05-27T03:47:56;16.08;;;5.25;;
27223;SDS011;14965;50.660;13.226;2023-05-27T03:50:22;16.02;;;5.30;;
27223;SDS011;14965;50.660;13.226;2023-05-27T03:52:48;16.50;;;5.32;;
27223;SDS011;14965;50.660;13.226;2023-05-27T03:55:16;18.85;;;5.95;;
27223;SDS011;14965;50.660;13.226;2023-05-27T03:57:42;16.17;;;5.67;;
27223;SDS011;14965;50.660;13.226;2023-05-27T04:00:09;18.08;;;5.40;;
27223;SDS011;14965;50.660;13.226;2023-05-27T04:02:36;17.52;;;6.00;;
27223;SDS011;14965;50.660;13.226;2023-05-27T04:05:04;16.70;;;5.40;;
27223;SDS011;14965;50.660;13.226;2023-05-27T04:07:30;11.73;;;4.70;;
27223;SDS011;14965;50.660;13.226;2023-05-27T04:09:57;16.55;;;5.28;;
27223;SDS011;14965;50.660;13.226;2023-05-27T04:12:25;17.25;;;5.53;;
27223;SDS011;14965;50.660;13.226;2023-05-27T04:14:52;16.40;;;4.85;;
27223;SDS011;14965;50.660;13.226;2023-05-27T04:17:18;20.48;;;6.05;;
27223;SDS011;14965;50.660;13.226;2023-05-27T04:19:44;22.50;;;5.20;;
27223;SDS011;14965;50.660;13.226;2023-05-27T04:22:11;16.73;;;5.53;;
27223;SDS011;14965;50.660;13.226;2023-05-27T04:24:37;17.20;;;5.55;;
27223;SDS011;14965;50.660;13.226;2023-05-27T04:27:03;15.25;;;5.47;;
27223;SDS011;14965;50.660;13.226;2023-05-27T04:29:31;18.13;;;5.78;;
27223;SDS011;14965;50.660;13.226;2023-05-27T04:31:57;18.13;;;5.18;;
27223;SDS011;14965;50.660;13.226;2023-05-27T04:34:23;17.52;;;5.10;;
27223;SDS011;14965;50.660;13.226;2023-05-27T04:36:49;12.73;;;5.25;;
27223;SDS011;14965;50.660;13.226;2023-05-27T04:39:16;16.35;;;5.13;;
27223;SDS011;14965;50.660;13.226;2023-05-27T04:41:42;17.27;;;5.38;;
27223;SDS011;14965;50.660;13.226;2023-05-27T04:44:08;18.58;;;5.07;;
27223;SDS011;14965;50.660;13.226;2023-05-27T04:46:35;22.52;;;5.22;;
27223;SDS011;14965;50.660;13.226;2023-05-27T04:49:02;16.70;;;5.33;;
27223;SDS011;14965;50.660;13.226;2023-05-27T04:51:28;17.10;;;5.00;;
27223;SDS011;14965;50.660;13.226;2023-05-27T04:53:54;17.42;;;5.07;;
27223;SDS011;14965;50.660;13.226;2023-05-27T04:56:20;15.43;;;4.72;;
27223;SDS011;14965;50.660;13.226;2023-05-27T04:58:46;13.98;;;4.90;;
27223;SDS011;14965;50.660;13.226;2023-05-27T05:01:12;16.60;;;4.93;;
27223;SDS011;14965;50.660;13.226;2023-05-27T05:03:40;13.25;;;4.53;;
27223;SDS011;14965;50.660;13.226;2023-05-27T05:06:06;16.98;;;4.90;;
27223;SDS011;14965;50.660;13.226;2023-05-27T05:08:32;15.65;;;4.85;;
27223;SDS011;14965;50.660;13.226;2023-05-27T05:10:58;18.52;;;4.97;;
27223;SDS011;14965;50.660;13.226;2023-05-27T05:13:24;18.25;;;4.90;;
27223;SDS011;14965;50.660;13.226;2023-05-27T05:15:50;15.68;;;4.65;;
27223;SDS011;14965;50.660;13.226;2023-05-27T05:18:16;14.10;;;4.43;;
27223;SDS011;14965;50.660;13.226;2023-05-27T05:20:43;13.20;;;4.85;;
27223;SDS011;14965;50.660;13.226;2023-05-27T05:23:09;17.33;;;4.82;;
27223;SDS011;14965;50.660;13.226;2023-05-27T05:25:36;16.75;;;5.18;;
27223;SDS011;14965;50.660;13.226;2023-05-27T05:28:02;18.73;;;5.00;;
27223;SDS011;14965;50.660;13.226;2023-05-27T05:30:28;12.95;;;4.40;;
27223;SDS011;14965;50.660;13.226;2023-05-27T05:32:53;15.70;;;4.90;;
27223;SDS011;14965;50.660;13.226;2023-05-27T05:35:19;16.08;;;4.47;;
27223;SDS011;14965;50.660;13.226;2023-05-27T05:37:47;14.82;;;4.30;;
27223;SDS011;14965;50.660;13.226;2023-05-27T05:40:13;17.05;;;4.35;;
27223;SDS011;14965;50.660;13.226;2023-05-27T05:42:39;18.02;;;5.03;;
27223;SDS011;14965;50.660;13.226;2023-05-27T05:45:06;20.05;;;4.28;;
27223;SDS011;14965;50.660;13.226;2023-05-27T05:47:33;14.70;;;4.25;;
27223;SDS011;14965;50.660;13.226;2023-05-27T05:49:59;18.63;;;4.22;;
27223;SDS011;14965;50.660;13.226;2023-05-27T05:52:25;16.30;;;4.65;;
27223;SDS011;14965;50.660;13.226;2023-05-27T05:54:52;15.80;;;4.47;;
27223;SDS011;14965;50.660;13.226;2023-05-27T05:57:18;17.85;;;4.55;;
27223;SDS011;14965;50.660;13.226;2023-05-27T05:59:44;15.05;;;4.65;;
27223;SDS011;14965;50.660;13.226;2023-05-27T06:02:10;16.77;;;4.57;;
27223;SDS011;14965;50.660;13.226;2023-05-27T06:04:36;19.33;;;4.60;;
27223;SDS011;14965;50.660;13.226;2023-05-27T06:07:02;14.90;;;4.75;;
27223;SDS011;14965;50.660;13.226;2023-05-27T06:09:28;17.98;;;4.30;;
27223;SDS011;14965;50.660;13.226;2023-05-27T06:11:55;16.65;;;4.65;;
27223;SDS011;14965;50.660;13.226;2023-05-27T06:14:21;16.20;;;4.30;;
27223;SDS011;14965;50.660;13.226;2023-05-27T06:16:47;17.50;;;4.38;;
27223;SDS011;14965;50.660;13.226;2023-05-27T06:19:13;26.13;;;4.97;;
27223;SDS011;14965;50.660;13.226;2023-05-27T06:21:39;17.63;;;4.40;;
27223;SDS011;14965;50.660;13.226;2023-05-27T06:24:05;14.38;;;4.03;;
27223;SDS011;14965;50.660;13.226;2023-05-27T06:26:32;17.83;;;5.05;;
27223;SDS011;14965;50.660;13.226;2023-05-27T06:29:01;19.40;;;4.85;;
27223;SDS011;14965;50.660;13.226;2023-05-27T06:31:27;15.52;;;4.28;;
27223;SDS011;14965;50.660;13.226;2023-05-27T06:33:53;21.75;;;4.90;;
27223;SDS011;14965;50.660;13.226;2023-05-27T06:36:19;17.50;;;4.55;;
27223;SDS011;14965;50.660;13.226;2023-05-27T06:38:45;16.85;;;4.85;;
27223;SDS011;14965;50.660;13.226;2023-05-27T06:41:11;14.85;;;4.60;;
27223;SDS011;14965;50.660;13.226;2023-05-27T06:43:36;17.27;;;4.45;;
27223;SDS011;14965;50.660;13.226;2023-05-27T06:46:04;20.35;;;4.75;;
27223;SDS011;14965;50.660;13.226;2023-05-27T06:48:30;17.77;;;4.50;;
27223;SDS011;14965;50.660;13.226;2023-05-27T06:50:56;15.48;;;4.03;;
27223;SDS011;14965;50.660;13.226;2023-05-27T06:53:22;14.80;;;4.50;;
27223;SDS011;14965;50.660;13.226;2023-05-27T06:55:48;16.55;;;4.63;;
27223;SDS011;14965;50.660;13.226;2023-05-27T06:58:13;19.90;;;5.13;;
27223;SDS011;14965;50.660;13.226;2023-05-27T07:00:39;16.98;;;4.57;;
27223;SDS011;14965;50.660;13.226;2023-05-27T07:03:07;18.67;;;4.85;;
27223;SDS011;14965;50.660;13.226;2023-05-27T07:05:32;22.23;;;5.45;;
27223;SDS011;14965;50.660;13.226;2023-05-27T07:07:58;16.27;;;4.85;;
27223;SDS011;14965;50.660;13.226;2023-05-27T07:10:24;18.45;;;5.00;;
27223;SDS011;14965;50.660;13.226;2023-05-27T07:12:50;20.73;;;4.82;;
27223;SDS011;14965;50.660;13.226;2023-05-27T07:15:16;21.92;;;5.03;;
27223;SDS011;14965;50.660;13.226;2023-05-27T07:17:42;20.08;;;5.25;;
27223;SDS011;14965;50.660;13.226;2023-05-27T07:20:10;20.33;;;5.22;;
27223;SDS011;14965;50.660;13.226;2023-05-27T07:22:37;18.42;;;4.82;;
27223;SDS011;14965;50.660;13.226;2023-05-27T07:25:03;14.50;;;5.00;;
27223;SDS011;14965;50.660;13.226;2023-05-27T07:27:30;17.35;;;4.95;;
27223;SDS011;14965;50.660;13.226;2023-05-27T07:29:56;17.48;;;4.93;;
27223;SDS011;14965;50.660;13.226;2023-05-27T07:32:22;18.80;;;4.93;;
27223;SDS011;14965;50.660;13.226;2023-05-27T07:34:48;17.10;;;4.70;;
27223;SDS011;14965;50.660;13.226;2023-05-27T07:37:15;17.77;;;4.80;;
27223;SDS011;14965;50.660;13.226;2023-05-27T07:39:41;22.40;;;4.88;;
27223;SDS011;14965;50.660;13.226;2023-05-27T07:42:07;20.48;;;4.43;;
27223;SDS011;14965;50.660;13.226;2023-05-27T07:44:33;15.07;;;4.63;;
27223;SDS011;14965;50.660;13.226;2023-05-27T07:46:59;19.35;;;4.80;;
27223;SDS011;14965;50.660;13.226;2023-05-27T07:49:25;20.50;;;4.75;;
27223;SDS011;14965;50.660;13.226;2023-05-27T07:51:51;17.02;;;4.50;;
27223;SDS011;14965;50.660;13.226;2023-05-27T07:54:18;16.92;;;5.05;;
27223;SDS011;14965;50.660;13.226;2023-05-27T07:56:44;14.18;;;4.43;;
27223;SDS011;14965;50.660;13.226;2023-05-27T07:59:10;16.98;;;4.40;;
27223;SDS011;14965;50.660;13.226;2023-05-27T08:01:36;16.55;;;4.65;;
27223;SDS011;14965;50.660;13.226;2023-05-27T08:04:02;18.23;;;4.70;;
27223;SDS011;14965;50.660;13.226;2023-05-27T08:06:27;19.20;;;4.50;;
27223;SDS011;14965;50.660;13.226;2023-05-27T08:08:53;17.15;;;4.43;;
27223;SDS011;14965;50.660;13.226;2023-05-27T08:11:20;16.10;;;4.25;;
27223;SDS011;14965;50.660;13.226;2023-05-27T08:13:46;15.30;;;4.63;;
27223;SDS011;14965;50.660;13.226;2023-05-27T08:16:12;13.70;;;4.45;;
27223;SDS011;14965;50.660;13.226;2023-05-27T08:18:38;21.08;;;4.30;;
27223;SDS011;14965;50.660;13.226;2023-05-27T08:21:04;14.65;;;4.63;;
27223;SDS011;14965;50.660;13.226;2023-05-27T08:23:30;13.50;;;4.35;;
27223;SDS011;14965;50.660;13.226;2023-05-27T08:25:56;16.35;;;4.32;;
27223;SDS011;14965;50.660;13.226;2023-05-27T08:28:24;15.05;;;4.63;;
27223;SDS011;14965;50.660;13.226;2023-05-27T08:30:49;18.08;;;4.57;;
27223;SDS011;14965;50.660;13.226;2023-05-27T08:33:15;13.27;;;4.70;;
27223;SDS011;14965;50.660;13.226;2023-05-27T08:35:41;19.08;;;4.65;;
27223;SDS011;14965;50.660;13.226;2023-05-27T08:38:07;18.00;;;4.43;;
27223;SDS011;14965;50.660;13.226;2023-05-27T08:40:33;14.13;;;4.78;;
27223;SDS011;14965;50.660;13.226;2023-05-27T08:42:59;18.38;;;4.38;;
27223;SDS011;14965;50.660;13.226;2023-05-27T08:45:26;24.52;;;5.30;;
27223;SDS011;14965;50.660;13.226;2023-05-27T08:47:52;19.73;;;4.85;;
27223;SDS011;14965;50.660;13.226;2023-05-27T08:50:19;12.50;;;4.43;;
27223;SDS011;14965;50.660;13.226;2023-05-27T08:52:45;17.45;;;5.05;;
27223;SDS011;14965;50.660;13.226;2023-05-27T08:55:14;18.80;;;4.90;;
27223;SDS011;14965;50.660;13.226;2023-05-27T08:57:46;16.45;;;4.68;;
27223;SDS011;14965;50.660;13.226;2023-05-27T09:00:15;14.45;;;4.75;;
27223;SDS011;14965;50.660;13.226;2023-05-27T09:02:43;15.23;;;4.60;;
27223;SDS011;14965;50.660;13.226;2023-05-27T09:05:09;16.50;;;4.45;;
27223;SDS011;14965;50.660;13.226;2023-05-27T09:07:36;17.77;;;4.90;;
27223;SDS011;14965;50.660;13.226;2023-05-27T09:10:02;16.13;;;4.22;;
27223;SDS011;14965;50.660;13.226;2023-05-27T09:12:30;14.65;;;4.20;;
27223;SDS011;14965;50.660;13.226;2023-05-27T09:14:56;14.15;;;4.30;;
27223;SDS011;14965;50.660;13.226;2023-05-27T09:17:22;15.20;;;4.38;;
27223;SDS011;14965;50.660;13.226;2023-05-27T09:19:51;13.68;;;4.97;;
27223;SDS011;14965;50.660;13.226;2023-05-27T09:24:45;13.67;;;3.93;;
27223;SDS011;14965;50.660;13.226;2023-05-27T09:27:11;15.38;;;4.93;;
27223;SDS011;14965;50.660;13.226;2023-05-27T09:29:38;13.02;;;4.38;;
27223;SDS011;14965;50.660;13.226;2023-05-27T09:32:04;12.75;;;4.47;;
27223;SDS011;14965;50.660;13.226;2023-05-27T09:34:30;13.30;;;4.35;;
27223;SDS011;14965;50.660;13.226;2023-05-27T09:36:57;15.48;;;4.47;;
27223;SDS011;14965;50.660;13.226;2023-05-27T09:39:23;15.95;;;4.50;;
27223;SDS011;14965;50.660;13.226;2023-05-27T09:41:49;11.90;;;4.60;;
27223;SDS011;14965;50.660;13.226;2023-05-27T09:44:17;16.67;;;4.63;;
27223;SDS011;14965;50.660;13.226;2023-05-27T09:46:43;15.90;;;4.85;;
27223;SDS011;14965;50.660;13.226;2023-05-27T09:49:10;13.40;;;4.88;;
27223;SDS011;14965;50.660;13.226;2023-05-27T09:54:07;19.33;;;5.22;;
27223;SDS011;14965;50.660;13.226;2023-05-27T09:56:36;15.80;;;4.68;;
27223;SDS011;14965;50.660;13.226;2023-05-27T09:59:03;16.98;;;5.18;;
27223;SDS011;14965;50.660;13.226;2023-05-27T10:01:29;18.02;;;5.20;;
27223;SDS011;14965;50.660;13.226;2023-05-27T10:03:55;16.83;;;5.10;;
27223;SDS011;14965;50.660;13.226;2023-05-27T10:06:21;20.02;;;5.22;;
27223;SDS011;14965;50.660;13.226;2023-05-27T10:08:48;15.80;;;4.70;;
27223;SDS011;14965;50.660;13.226;2023-05-27T10:11:15;13.30;;;4.68;;
27223;SDS011;14965;50.660;13.226;2023-05-27T10:13:41;16.48;;;4.88;;
27223;SDS011;14965;50.660;13.226;2023-05-27T10:16:17;16.40;;;5.53;;
27223;SDS011;14965;50.660;13.226;2023-05-27T10:18:44;12.23;;;4.85;;
27223;SDS011;14965;50.660;13.226;2023-05-27T10:21:10;16.92;;;5.68;;
27223;SDS011;14965;50.660;13.226;2023-05-27T10:23:51;14.80;;;5.00;;
27223;SDS011;14965;50.660;13.226;2023-05-27T10:26:30;19.83;;;4.72;;
27223;SDS011;14965;50.660;13.226;2023-05-27T10:29:04;11.00;;;4.47;;
27223;SDS011;14965;50.660;13.226;2023-05-27T10:31:31;15.10;;;5.53;;
27223;SDS011;14965;50.660;13.226;2023-05-27T10:33:57;15.40;;;5.22;;
27223;SDS011;14965;50.660;13.226;2023-05-27T10:36:25;12.18;;;4.70;;
27223;SDS011;14965;50.660;13.226;2023-05-27T10:38:56;12.80;;;4.82;;
27223;SDS011;14965;50.660;13.226;2023-05-27T10:41:25;13.00;;;4.93;;
27223;SDS011;14965;50.660;13.226;2023-05-27T10:43:54;11.85;;;4.72;;
27223;SDS011;14965;50.660;13.226;2023-05-27T10:46:20;12.40;;;4.30;;
27223;SDS011;14965;50.660;13.226;2023-05-27T10:48:47;16.60;;;5.05;;
27223;SDS011;14965;50.660;13.226;2023-05-27T10:51:13;12.68;;;5.00;;
27223;SDS011;14965;50.660;13.226;2023-05-27T10:53:39;16.25;;;4.90;;
27223;SDS011;14965;50.660;13.226;2023-05-27T10:56:05;13.85;;;5.20;;
27223;SDS011;14965;50.660;13.226;2023-05-27T10:58:34;14.30;;;4.43;;
27223;SDS011;14965;50.660;13.226;2023-05-27T11:01:06;16.30;;;5.07;;
27223;SDS011;14965;50.660;13.226;2023-05-27T11:03:35;11.85;;;4.72;;
27223;SDS011;14965;50.660;13.226;2023-05-27T11:06:08;14.75;;;4.70;;
27223;SDS011;14965;50.660;13.226;2023-05-27T11:08:36;12.73;;;4.85;;
27223;SDS011;14965;50.660;13.226;2023-05-27T11:11:03;14.10;;;4.70;;
27223;SDS011;14965;50.660;13.226;2023-05-27T11:13:34;10.13;;;4.32;;
27223;SDS011;14965;50.660;13.226;2023-05-27T11:16:04;13.20;;;4.55;;
27223;SDS011;14965;50.660;13.226;2023-05-27T11:18:36;9.95;;;4.70;;
27223;SDS011;14965;50.660;13.226;2023-05-27T11:21:03;13.63;;;5.00;;
27223;SDS011;14965;50.660;13.226;2023-05-27T11:23:34;15.35;;;4.82;;
27223;SDS011;14965;50.660;13.226;2023-05-27T11:26:02;13.27;;;4.70;;
27223;SDS011;14965;50.660;13.226;2023-05-27T11:28:29;11.20;;;4.00;;
27223;SDS011;14965;50.660;13.226;2023-05-27T11:30:59;13.02;;;4.60;;
27223;SDS011;14965;50.660;13.226;2023-05-27T11:33:31;14.13;;;4.50;;
27223;SDS011;14965;50.660;13.226;2023-05-27T11:36:05;12.75;;;4.53;;
27223;SDS011;14965;50.660;13.226;2023-05-27T11:38:38;14.95;;;4.40;;
27223;SDS011;14965;50.660;13.226;2023-05-27T11:41:14;14.88;;;4.03;;
27223;SDS011;14965;50.660;13.226;2023-05-27T11:43:46;12.13;;;3.80;;
27223;SDS011;14965;50.660;13.226;2023-05-27T11:46:22;14.00;;;4.55;;
27223;SDS011;14965;50.660;13.226;2023-05-27T11:48:49;9.23;;;4.17;;
27223;SDS011;14965;50.660;13.226;2023-05-27T11:51:15;15.50;;;4.50;;
27223;SDS011;14965;50.660;13.226;2023-05-27T11:53:43;12.23;;;4.28;;
27223;SDS011;14965;50.660;13.226;2023-05-27T11:56:11;17.10;;;4.63;;
27223;SDS011;14965;50.660;13.226;2023-05-27T11:58:37;18.58;;;4.95;;
27223;SDS011;14965;50.660;13.226;2023-05-27T12:01:03;11.13;;;4.68;;
27223;SDS011;14965;50.660;13.226;2023-05-27T12:03:30;14.98;;;3.95;;
27223;SDS011;14965;50.660;13.226;2023-05-27T12:05:59;10.88;;;4.20;;
27223;SDS011;14965;50.660;13.226;2023-05-27T12:08:25;10.18;;;4.40;;
27223;SDS011;14965;50.660;13.226;2023-05-27T12:10:51;14.90;;;4.28;;
27223;SDS011;14965;50.660;13.226;2023-05-27T12:13:17;11.68;;;4.07;;
27223;SDS011;14965;50.660;13.226;2023-05-27T12:15:43;11.02;;;4.10;;
27223;SDS011;14965;50.660;13.226;2023-05-27T12:18:09;11.65;;;4.20;;
27223;SDS011;14965;50.660;13.226;2023-05-27T12:20:36;16.10;;;4.63;;
27223;SDS011;14965;50.660;13.226;2023-05-27T12:23:03;12.35;;;3.92;;
27223;SDS011;14965;50.660;13.226;2023-05-27T12:25:30;14.40;;;4.07;;
27223;SDS011;14965;50.660;13.226;2023-05-27T12:27:56;11.70;;;3.95;;
27223;SDS011;14965;50.660;13.226;2023-05-27T12:30:22;12.50;;;4.35;;
27223;SDS011;14965;50.660;13.226;2023-05-27T12:32:48;19.25;;;5.75;;
27223;SDS011;14965;50.660;13.226;2023-05-27T12:35:14;15.80;;;4.57;;
27223;SDS011;14965;50.660;13.226;2023-05-27T12:37:41;13.13;;;4.13;;
27223;SDS011;14965;50.660;13.226;2023-05-27T12:40:09;12.88;;;4.18;;
27223;SDS011;14965;50.660;13.226;2023-05-27T12:42:36;12.85;;;4.10;;
27223;SDS011;14965;50.660;13.226;2023-05-27T12:45:03;12.27;;;3.97;;
27223;SDS011;14965;50.660;13.226;2023-05-27T12:47:30;10.65;;;4.10;;
27223;SDS011;14965;50.660;13.226;2023-05-27T12:49:55;14.20;;;4.45;;
27223;SDS011;14965;50.660;13.226;2023-05-27T12:52:21;11.38;;;4.63;;
27223;SDS011;14965;50.660;13.226;2023-05-27T12:54:48;11.48;;;4.35;;
27223;SDS011;14965;50.660;13.226;2023-05-27T12:57:14;9.32;;;4.10;;
27223;SDS011;14965;50.660;13.226;2023-05-27T12:59:40;8.40;;;4.10;;
27223;SDS011;14965;50.660;13.226;2023-05-27T13:02:06;12.32;;;4.07;;
27223;SDS011;14965;50.660;13.226;2023-05-27T13:04:32;14.27;;;4.40;;
27223;SDS011;14965;50.660;13.226;2023-05-27T13:06:59;11.05;;;4.03;;
27223;SDS011;14965;50.660;13.226;2023-05-27T13:09:25;11.00;;;4.13;;
27223;SDS011;14965;50.660;13.226;2023-05-27T13:11:52;10.20;;;3.88;;
27223;SDS011;14965;50.660;13.226;2023-05-27T13:14:18;11.43;;;4.22;;
27223;SDS011;14965;50.660;13.226;2023-05-27T13:16:44;12.80;;;5.18;;
27223;SDS011;14965;50.660;13.226;2023-05-27T13:19:10;14.10;;;4.55;;
27223;SDS011;14965;50.660;13.226;2023-05-27T13:21:36;12.38;;;4.05;;
27223;SDS011;14965;50.660;13.226;2023-05-27T13:24:01;12.10;;;4.72;;
27223;SDS011;14965;50.660;13.226;2023-05-27T13:26:28;11.02;;;4.50;;
27223;SDS011;14965;50.660;13.226;2023-05-27T13:28:55;9.63;;;4.10;;
27223;SDS011;14965;50.660;13.226;2023-05-27T13:31:21;10.52;;;3.80;;
27223;SDS011;14965;50.660;13.226;2023-05-27T13:33:47;11.02;;;4.18;;
27223;SDS011;14965;50.660;13.226;2023-05-27T13:36:13;12.23;;;3.88;;
27223;SDS011;14965;50.660;13.226;2023-05-27T13:38:40;11.25;;;4.20;;
27223;SDS011;14965;50.660;13.226;2023-05-27T13:41:05;9.73;;;4.18;;
27223;SDS011;14965;50.660;13.226;2023-05-27T13:43:31;14.18;;;4.70;;
27223;SDS011;14965;50.660;13.226;2023-05-27T13:45:59;11.15;;;3.97;;
27223;SDS011;14965;50.660;13.226;2023-05-27T13:48:24;13.50;;;4.30;;
27223;SDS011;14965;50.660;13.226;2023-05-27T13:50:50;9.75;;;4.15;;
27223;SDS011;14965;50.660;13.226;2023-05-27T13:53:16;10.65;;;5.07;;
27223;SDS011;14965;50.660;13.226;2023-05-27T13:55:42;12.23;;;4.15;;
27223;SDS011;14965;50.660;13.226;2023-05-27T13:58:08;11.52;;;4.00;;
27223;SDS011;14965;50.660;13.226;2023-05-27T14:00:34;8.60;;;4.07;;
27223;SDS011;14965;50.660;13.226;2023-05-27T14:03:01;10.52;;;4.00;;
27223;SDS011;14965;50.660;13.226;2023-05-27T14:05:27;12.95;;;4.05;;
27223;SDS011;14965;50.660;13.226;2023-05-27T14:07:53;8.75;;;3.80;;
27223;SDS011;14965;50.660;13.226;2023-05-27T14:10:19;10.25;;;3.83;;
27223;SDS011;14965;50.660;13.226;2023-05-27T14:12:45;10.25;;;3.92;;
27223;SDS011;14965;50.660;13.226;2023-05-27T14:15:11;7.20;;;3.85;;
27223;SDS011;14965;50.660;13.226;2023-05-27T14:17:37;9.70;;;4.05;;
27223;SDS011;14965;50.660;13.226;2023-05-27T14:20:05;11.70;;;3.88;;
27223;SDS011;14965;50.660;13.226;2023-05-27T14:24:57;11.38;;;4.20;;
27223;SDS011;14965;50.660;13.226;2023-05-27T14:27:23;11.52;;;4.05;;
27223;SDS011;14965;50.660;13.226;2023-05-27T14:29:49;11.30;;;3.67;;